Detall de PIREP

Printer-friendly versionPDF version

[2014/09/22 08:56:00]
Flight IATA:CT3110
Pilot Number:011
Company ICAO:CAT
Aircraft Type:B738/F
PAX:160
Departing Airport: LEBL
Destination Airport: LEPA
Alternate Airport:LEBL
Online: VATSIM
Route:LARPA B31 TOLSO
Flight Level:F170
No Slew and time accel
No pause
Crash detect
Detect pilot in Cockpit between each 30 and 45 minutes
08:56 Zero fuel Weight: 135990 Lbs, Fuel Weight: 10354 Lbs
08:56 VATSIM:LEBL 220830Z 05006KT 360V090 9999 FEW020 21/18 Q1016 NOSIG
08:56 VATSIM:LEPA 220830Z 05010KT 9999 FEW018 SCT022 26/20 Q1014 TEMPO FEW020CB
08:57 Parking Brakes off
09:09 Take-off
09:09 Take off Weight: 145394 Lbs
09:09 Wind: 066º @ 006 Knots Heading: 019º
09:09 POS N41º 18´ 03´´ E002º 05´ 27´´
09:09 Flaps:5 at 165 Knots
09:09 Gear Up: 168 Knots
09:10 Flaps:4 at 238 Knots
09:10 Flaps:3 at 246 Knots
09:11 Flaps:2 at 245 Knots
09:11 Flaps:1 at 246 Knots
09:11 Flaps:0 at 245 Knots
09:15 TOC
09:15 Fuel Weight: 7669 Lb
09:22 TOD
09:22 Fuel Weight: 7014 Lb
09:24 Wind:061º@027 Knots Heading: 162º Ground Speed: 381 Knots Altitude 14566 ft
09:34 Flaps:1 at 226 Knots
09:34 Flaps:2 at 226 Knots
09:34 Flaps:3 at 222 Knots
09:34 Flaps:4 at 221 Knots
09:35 Flaps:5 at 205 Knots
09:35 Flaps:6 at 181 Knots
09:35 Gear Down: 170 Knots
09:36 Flaps:7 at 168 Knots
09:36 Flaps:8 at 158 Knots
09:39 Wind:062º@014 Knots Heading: 058º Ground Speed: 130 Knots Altitude 1417 ft
09:42 TouchDown:Rate -392 ft/min Speed: 119 Knots
09:42 VATSIM:LEPA 220930Z 06016KT 030V100 9999 FEW018 26/19 Q1014 TEMPO FEW020CB
09:42 Land
09:42 Wind:058º@016 Knots
09:42 Heading: 057º
09:42 Flight Duration: 00:33
09:42 Landing Weight: 141413 Lbs
09:42 POS N39º 33´ 15´´ E002º 43´ 33´´
09:47 Parking brakes on
09:47 Block to Block Duration: 00:50
09:47 Final Fuel: 5002 Lbls
09:47 Spent Fuel: 5352 Lbls
09:47 Flight Length: 157 NM
09:47 TOD Land Length: 86 NM

Exportar CSV

Powered by Drupal - Modified by Danger4k